Philadelphia, Pennsylvania
Traffic Map
Current Weather Conditions
Philadelphia, Pennsylvania
Broken Clouds
Broken Clouds
74°
Feels Like: 74°
Wind Chill: 74° Ceiling: 26000
Heat Index: 74° Visibility: 10mi
Dew Point: 65° Wind: 3mph
Humidity: 73% Direction: 30° (NNE)
Pressure: 30.02in Gusts: 0mph
Raw Report DataKPHL 221154Z 03003KT 10SM SCT060 SCT080 BKN260 23/18 A3002 RMK AO2 SLP166 70001 T02330183 10233 20206 51010 $
Traffic Incident Summary
Active as of:
Severity:
Category:
InformationThere was an issue retrieving the traffic information for this location. Please try a different location or try again shortly.
Advertisements
Track Severe Weather on mobile